createdAt,value
2023-02-13T00:02:28.229Z,77.29
2023-02-13T00:06:31.365Z,77.02
2023-02-13T00:10:32.857Z,77.07
2023-02-13T00:14:35.253Z,77.16
2023-02-13T00:18:38.467Z,77.05
2023-02-13T00:22:41.332Z,77.20
2023-02-13T00:26:42.730Z,77.33
2023-02-13T00:30:44.127Z,77.12
2023-02-13T00:34:45.502Z,77.65
2023-02-13T00:38:48.920Z,77.31
2023-02-13T00:42:50.285Z,77.17
2023-02-13T00:46:51.667Z,77.56
2023-02-13T00:50:53.486Z,77.34
2023-02-13T00:54:56.394Z,77.37
2023-02-13T00:58:57.987Z,77.63
2023-02-13T01:02:59.434Z,77.76
2023-02-13T01:07:00.792Z,77.72
2023-02-13T01:11:03.874Z,78.06
2023-02-13T01:15:07.487Z,78.09
2023-02-13T01:19:08.862Z,77.65
2023-02-13T01:23:10.777Z,78.39
2023-02-13T01:27:13.535Z,77.93
2023-02-13T01:31:15.738Z,77.70
2023-02-13T01:35:17.282Z,77.56
2023-02-13T01:39:18.730Z,78.44
2023-02-13T01:43:21.524Z,78.24
2023-02-13T01:47:27.171Z,78.19
2023-02-13T01:51:33.443Z,78.04
2023-02-13T01:55:37.680Z,78.59
2023-02-13T01:59:46.919Z,78.13
2023-02-13T02:03:52.985Z,78.56
2023-02-13T02:07:55.367Z,78.15
2023-02-13T02:12:03.181Z,78.56
2023-02-13T02:16:06.826Z,79.10
2023-02-13T02:20:26.027Z,78.05
2023-02-13T02:25:01.293Z,78.14
2023-02-13T02:29:28.251Z,78.72
2023-02-13T02:33:40.087Z,78.66
2023-02-13T02:37:55.249Z,78.24
2023-02-13T02:42:05.352Z,78.52
2023-02-13T02:46:15.356Z,78.64
2023-02-13T02:50:30.799Z,78.16
2023-02-13T02:54:38.851Z,78.57
2023-02-13T02:58:45.253Z,78.27
2023-02-13T03:02:47.263Z,78.45
2023-02-13T03:06:54.670Z,78.52
2023-02-13T03:10:56.512Z,78.60
2023-02-13T03:14:58.316Z,78.72
2023-02-13T03:19:00.011Z,78.99
2023-02-13T03:23:12.429Z,78.39
2023-02-13T03:27:25.527Z,78.84
2023-02-13T03:31:34.918Z,78.99
2023-02-13T03:35:45.839Z,78.39
2023-02-13T03:39:58.284Z,78.69
2023-02-13T03:44:11.107Z,79.10
2023-02-13T03:48:16.655Z,79.47
2023-02-13T03:52:24.999Z,79.76
2023-02-13T03:56:30.482Z,79.91
2023-02-13T04:00:38.255Z,79.39
2023-02-13T04:04:47.039Z,79.69
2023-02-13T04:08:48.535Z,80.15
2023-02-13T04:13:00.866Z,80.09
2023-02-13T04:17:05.839Z,80.56
2023-02-13T04:21:07.784Z,79.62
2023-02-13T04:25:11.202Z,80.34
2023-02-13T04:29:14.169Z,80.97
2023-02-13T04:33:15.900Z,80.55
2023-02-13T04:37:17.275Z,81.02
2023-02-13T04:41:18.789Z,80.95
2023-02-13T04:45:21.585Z,81.14
2023-02-13T04:49:23.103Z,80.91
2023-02-13T04:53:24.544Z,81.23
2023-02-13T04:57:26.032Z,81.37
2023-02-13T05:01:29.132Z,81.90
2023-02-13T05:05:30.632Z,82.14
2023-02-13T05:09:32.080Z,81.47
2023-02-13T05:13:33.694Z,82.12
2023-02-13T05:17:36.450Z,81.47
2023-02-13T05:21:37.911Z,81.68
2023-02-13T05:25:41.217Z,81.71
2023-02-13T05:29:42.649Z,82.17
2023-02-13T05:33:45.427Z,81.68
2023-02-13T05:37:47.028Z,81.91
2023-02-13T05:41:49.122Z,82.16
2023-02-13T05:45:50.501Z,81.21
2023-02-13T05:49:53.276Z,81.68
2023-02-13T05:53:54.864Z,81.68
2023-02-13T05:57:57.079Z,81.69
2023-02-13T06:01:58.541Z,82.08
2023-02-13T06:06:01.262Z,81.99
2023-02-13T06:10:02.711Z,81.97
2023-02-13T06:14:04.189Z,81.72
2023-02-13T06:18:05.856Z,81.93
2023-02-13T06:22:08.649Z,81.60
2023-02-13T06:26:10.274Z,82.31
2023-02-13T06:30:13.314Z,82.10
2023-02-13T06:34:14.919Z,82.48
2023-02-13T06:38:17.673Z,82.64
2023-02-13T06:42:19.157Z,82.96
2023-02-13T06:46:20.583Z,82.13
2023-02-13T06:50:22.060Z,82.56
2023-02-13T06:54:37.093Z,82.73
2023-02-13T06:58:42.600Z,83.13
2023-02-13T07:02:45.615Z,82.70
2023-02-13T07:06:47.113Z,82.91
2023-02-13T07:10:49.913Z,82.59
2023-02-13T07:14:51.408Z,82.66
2023-02-13T07:18:52.878Z,82.69
2023-02-13T07:22:57.842Z,82.79
2023-02-13T07:27:00.632Z,82.12
2023-02-13T07:31:04.600Z,82.30
2023-02-13T07:35:06.306Z,82.08
2023-02-13T07:39:10.282Z,82.59
2023-02-13T07:43:13.746Z,82.16
2023-02-13T07:47:15.185Z,82.02
2023-02-13T07:51:16.604Z,81.42
2023-02-13T07:55:18.009Z,81.86
2023-02-13T07:59:20.817Z,81.26
2023-02-13T08:03:22.618Z,80.93
2023-02-13T08:07:24.111Z,80.75
2023-02-13T08:11:30.940Z,80.42
2023-02-13T08:15:33.752Z,80.11
2023-02-13T08:19:35.076Z,80.15
2023-02-13T08:23:36.523Z,79.72
2023-02-13T08:27:38.466Z,78.93
2023-02-13T08:31:41.361Z,79.17
2023-02-13T08:35:42.837Z,78.58
2023-02-13T08:39:46.798Z,78.25
2023-02-13T08:43:48.567Z,77.85
2023-02-13T08:47:51.306Z,77.55
2023-02-13T08:51:52.949Z,77.01
2023-02-13T08:55:55.407Z,76.83
2023-02-13T08:59:56.984Z,76.44
2023-02-13T09:03:59.886Z,76.54
2023-02-13T09:08:01.948Z,76.48
2023-02-13T09:12:03.625Z,75.92
2023-02-13T09:16:07.132Z,74.93
2023-02-13T09:20:11.049Z,74.83
2023-02-13T09:24:12.520Z,74.90
2023-02-13T09:28:14.015Z,74.57
2023-02-13T09:32:15.478Z,74.00
2023-02-13T09:36:20.277Z,73.92
2023-02-13T09:40:28.295Z,74.62
2023-02-13T09:44:36.063Z,73.12
2023-02-13T09:48:40.342Z,72.78
2023-02-13T09:52:44.867Z,72.66
2023-02-13T09:56:55.249Z,72.44
2023-02-13T10:00:59.988Z,71.62
2023-02-13T10:05:10.542Z,71.38
2023-02-13T10:09:21.252Z,71.37
2023-02-13T10:13:30.989Z,70.99
2023-02-13T10:17:35.832Z,70.42
2023-02-13T10:21:42.840Z,70.02
2023-02-13T10:25:50.653Z,70.17
2023-02-13T10:29:57.253Z,69.02
2023-02-13T10:34:03.407Z,68.17
2023-02-13T10:38:14.871Z,66.53
2023-02-13T10:42:34.182Z,63.47
2023-02-13T10:46:44.563Z,61.49
2023-02-13T10:50:54.155Z,100.00
2023-02-13T10:55:09.279Z,100.00
2023-02-13T10:59:27.016Z,100.00
2023-02-13T11:03:29.595Z,100.00
2023-02-13T11:07:31.970Z,100.00
2023-02-13T11:11:35.290Z,100.00
2023-02-13T11:15:39.144Z,100.00
2023-02-13T11:19:51.067Z,100.00
2023-02-13T11:23:55.138Z,100.00
2023-02-13T11:28:08.877Z,61.49
2023-02-13T11:32:21.856Z,49.62
2023-02-13T11:36:26.394Z,49.13
2023-02-13T11:40:31.423Z,49.33
2023-02-13T11:44:33.336Z,49.70
2023-02-13T11:48:36.266Z,47.94
2023-02-13T11:52:37.880Z,48.23
2023-02-13T11:57:03.333Z,49.11
2023-02-13T12:01:25.216Z,48.11
2023-02-13T12:05:29.133Z,47.80
2023-02-13T12:09:31.907Z,48.71
2023-02-13T12:13:37.365Z,48.40
2023-02-13T12:17:43.763Z,49.36
2023-02-13T12:22:00.572Z,48.40
2023-02-13T12:26:17.814Z,48.67
2023-02-13T12:30:48.704Z,47.88
2023-02-13T12:35:18.776Z,47.06
2023-02-13T12:39:27.683Z,48.83
2023-02-13T12:43:54.014Z,48.52
2023-02-13T12:48:09.664Z,48.86
2023-02-13T12:52:30.259Z,47.97
2023-02-13T12:56:45.225Z,48.43
2023-02-13T13:00:57.390Z,47.73
2023-02-13T13:05:08.518Z,47.60
2023-02-13T13:09:27.549Z,48.30
2023-02-13T13:13:43.024Z,48.11
2023-02-13T13:18:04.703Z,47.67
2023-02-13T13:22:12.903Z,47.54
2023-02-13T13:26:22.738Z,47.76
2023-02-13T13:30:29.228Z,47.35
2023-02-13T13:34:34.026Z,47.24
2023-02-13T13:38:49.111Z,47.61
2023-02-13T13:42:54.929Z,47.77
2023-02-13T13:47:04.810Z,47.22
2023-02-13T13:51:08.281Z,47.96
2023-02-13T13:55:44.524Z,47.46
2023-02-13T14:00:22.301Z,46.81
2023-02-13T14:04:39.413Z,47.23
2023-02-13T14:08:57.887Z,47.24
2023-02-13T14:13:00.541Z,47.16
2023-02-13T14:17:02.536Z,47.15
2023-02-13T14:21:06.254Z,47.22
2023-02-13T14:25:22.712Z,46.78
2023-02-13T14:29:33.040Z,47.02
2023-02-13T14:33:35.314Z,46.61
2023-02-13T14:37:47.626Z,46.66
2023-02-13T14:41:59.863Z,47.08
2023-02-13T14:46:09.709Z,47.43
2023-02-13T14:50:18.123Z,47.87
2023-02-13T14:54:26.615Z,47.53
2023-02-13T14:58:30.911Z,47.34
2023-02-13T15:02:36.959Z,47.54
2023-02-13T15:06:40.476Z,47.28
2023-02-13T15:10:45.011Z,47.07
2023-02-13T15:14:46.375Z,47.14
2023-02-13T15:18:50.700Z,47.52
2023-02-13T15:22:52.676Z,48.03
2023-02-13T15:27:00.669Z,47.91
2023-02-13T15:31:04.970Z,47.47
2023-02-13T15:35:22.947Z,48.26
2023-02-13T15:39:26.883Z,48.09
2023-02-13T15:43:34.963Z,47.84
2023-02-13T15:47:36.960Z,48.29
2023-02-13T15:51:38.506Z,47.84
2023-02-13T15:55:40.358Z,49.36
2023-02-13T15:59:43.610Z,48.38
2023-02-13T16:03:47.581Z,49.06
2023-02-13T16:07:50.559Z,49.13
2023-02-13T16:12:12.155Z,49.52
2023-02-13T16:16:15.612Z,49.83
2023-02-13T16:20:20.190Z,49.54
2023-02-13T16:24:22.202Z,50.65
2023-02-13T16:28:26.390Z,50.78
2023-02-13T16:32:31.820Z,51.20
2023-02-13T16:36:34.191Z,51.33
2023-02-13T16:40:38.557Z,51.59
2023-02-13T16:44:39.946Z,52.06
2023-02-13T16:48:44.430Z,52.77
2023-02-13T16:52:45.849Z,53.51
2023-02-13T16:56:50.349Z,53.68
2023-02-13T17:00:51.883Z,53.97
2023-02-13T17:04:56.496Z,54.21
2023-02-13T17:08:57.838Z,55.11
2023-02-13T17:13:01.384Z,55.32
2023-02-13T17:17:02.794Z,55.60
2023-02-13T17:21:06.024Z,56.04
2023-02-13T17:25:09.356Z,56.65
2023-02-13T17:29:10.714Z,56.58
2023-02-13T17:33:14.432Z,56.98
2023-02-13T17:37:22.781Z,56.98
2023-02-13T17:41:24.195Z,57.44
2023-02-13T17:45:28.088Z,57.73
2023-02-13T17:49:29.445Z,58.07
2023-02-13T17:53:32.262Z,57.90
2023-02-13T17:57:33.703Z,58.47
2023-02-13T18:01:35.093Z,58.90
2023-02-13T18:05:36.501Z,58.91
2023-02-13T18:09:39.588Z,59.11
2023-02-13T18:13:40.964Z,59.05
2023-02-13T18:17:43.119Z,59.10
2023-02-13T18:21:44.512Z,59.00
2023-02-13T18:25:47.437Z,58.81
2023-02-13T18:29:48.869Z,58.09
2023-02-13T18:33:50.278Z,57.44
2023-02-13T18:37:51.755Z,57.42
2023-02-13T18:41:54.468Z,57.23
2023-02-13T18:45:55.947Z,56.80
2023-02-13T18:49:57.396Z,56.75
2023-02-13T18:53:58.933Z,56.76
2023-02-13T18:58:01.671Z,56.20
2023-02-13T19:02:04.371Z,56.52
2023-02-13T19:06:08.300Z,56.87
2023-02-13T19:10:10.735Z,56.67
2023-02-13T19:14:13.981Z,56.74
2023-02-13T19:18:15.341Z,57.42
2023-02-13T19:22:16.710Z,57.64
2023-02-13T19:26:20.215Z,57.66
2023-02-13T19:30:23.087Z,58.08
2023-02-13T19:34:24.572Z,57.95
2023-02-13T19:38:26.675Z,58.26
2023-02-13T19:42:28.095Z,58.17
2023-02-13T19:46:31.761Z,58.67
2023-02-13T19:50:33.191Z,58.79
2023-02-13T19:54:34.615Z,59.00
2023-02-13T19:58:37.549Z,59.23
2023-02-13T20:02:40.382Z,59.40
2023-02-13T20:06:41.860Z,59.91
2023-02-13T20:10:44.263Z,59.85
2023-02-13T20:14:45.687Z,60.23
2023-02-13T20:18:48.683Z,60.70
2023-02-13T20:22:50.083Z,61.14
2023-02-13T20:26:51.486Z,61.27
2023-02-13T20:30:52.951Z,62.32
2023-02-13T20:34:59.890Z,63.58
2023-02-13T20:39:04.050Z,64.32
2023-02-13T20:43:05.440Z,65.06
2023-02-13T20:47:06.810Z,65.65
2023-02-13T20:51:12.092Z,64.64
2023-02-13T20:55:13.574Z,63.90
2023-02-13T20:59:15.004Z,63.90
2023-02-13T21:03:16.371Z,63.50
2023-02-13T21:07:19.180Z,64.11
2023-02-13T21:11:21.405Z,65.11
2023-02-13T21:15:22.777Z,65.87
2023-02-13T21:19:24.273Z,65.85
2023-02-13T21:23:26.992Z,66.15
2023-02-13T21:27:28.399Z,66.88
2023-02-13T21:31:32.495Z,66.92
2023-02-13T21:35:33.959Z,67.67
2023-02-13T21:39:36.660Z,67.81
2023-02-13T21:43:38.702Z,68.11
2023-02-13T21:47:40.055Z,69.06
2023-02-13T21:51:41.996Z,69.07
2023-02-13T21:55:44.704Z,69.61
2023-02-13T21:59:46.075Z,69.80
2023-02-13T22:03:48.092Z,70.02
2023-02-13T22:07:49.523Z,69.82
2023-02-13T22:11:53.017Z,70.70
2023-02-13T22:16:00.739Z,70.57
2023-02-13T22:20:02.304Z,70.37
2023-02-13T22:24:04.370Z,70.93
2023-02-13T22:28:08.776Z,71.42
2023-02-13T22:32:10.192Z,70.73
2023-02-13T22:36:12.495Z,69.97
2023-02-13T22:40:14.032Z,70.87
2023-02-13T22:44:16.798Z,71.15
2023-02-13T22:48:18.150Z,71.55
2023-02-13T22:52:19.760Z,72.21
2023-02-13T22:56:21.967Z,72.06
2023-02-13T23:00:25.017Z,71.41
2023-02-13T23:04:26.419Z,70.16
2023-02-13T23:08:27.765Z,69.37
2023-02-13T23:12:29.392Z,69.03
2023-02-13T23:16:32.105Z,68.91
2023-02-13T23:20:33.539Z,68.25
2023-02-13T23:24:34.947Z,68.48
2023-02-13T23:28:36.393Z,69.00
2023-02-13T23:32:39.458Z,69.54
2023-02-13T23:36:40.844Z,69.64
2023-02-13T23:40:42.211Z,68.86
2023-02-13T23:44:43.565Z,69.38
2023-02-13T23:48:46.338Z,69.44
2023-02-13T23:52:47.687Z,69.57
2023-02-13T23:56:50.718Z,70.17
